createdAt,value
2023-04-18T00:00:49.012Z,87.45
2023-04-18T00:03:17.027Z,87.72
2023-04-18T00:05:46.686Z,87.86
2023-04-18T00:08:13.882Z,88.13
2023-04-18T00:10:40.559Z,88.15
2023-04-18T00:13:06.861Z,88.12
2023-04-18T00:15:34.779Z,88.14
2023-04-18T00:18:03.232Z,88.20
2023-04-18T00:20:30.061Z,88.29
2023-04-18T00:22:56.480Z,88.34
2023-04-18T00:25:22.860Z,88.13
2023-04-18T00:27:49.124Z,88.24
2023-04-18T00:30:17.056Z,88.53
2023-04-18T00:32:43.857Z,88.54
2023-04-18T00:35:10.182Z,88.34
2023-04-18T00:37:37.734Z,88.30
2023-04-18T00:40:05.035Z,88.43
2023-04-18T00:42:31.429Z,88.44
2023-04-18T00:44:57.733Z,88.48
2023-04-18T00:47:24.535Z,88.54
2023-04-18T00:49:51.048Z,88.59
2023-04-18T00:52:18.039Z,88.57
2023-04-18T00:54:44.824Z,88.71
2023-04-18T00:57:12.359Z,88.79
2023-04-18T00:59:38.676Z,88.83
2023-04-18T01:02:07.315Z,88.70
2023-04-18T01:04:33.766Z,88.84
2023-04-18T01:07:01.562Z,88.67
2023-04-18T01:09:28.681Z,88.27
2023-04-18T01:11:55.316Z,88.28
2023-04-18T01:14:21.939Z,88.40
2023-04-18T01:16:48.262Z,88.22
2023-04-18T01:19:16.728Z,88.34
2023-04-18T01:21:43.329Z,88.31
2023-04-18T01:24:15.896Z,88.20
2023-04-18T01:26:44.616Z,88.35
2023-04-18T01:29:11.681Z,88.11
2023-04-18T01:31:39.314Z,88.19
2023-04-18T01:34:07.188Z,88.05
2023-04-18T01:36:35.296Z,87.93
2023-04-18T01:39:01.865Z,87.98
2023-04-18T01:41:31.626Z,87.95
2023-04-18T01:43:59.032Z,87.97
2023-04-18T01:46:26.324Z,87.99
2023-04-18T01:48:54.740Z,87.92
2023-04-18T01:51:21.458Z,87.83
2023-04-18T01:53:47.998Z,87.74
2023-04-18T01:56:14.334Z,87.89
2023-04-18T01:58:41.018Z,87.92
2023-04-18T02:01:07.720Z,87.89
2023-04-18T02:03:34.398Z,88.05
2023-04-18T02:06:04.703Z,87.88
2023-04-18T02:08:34.689Z,87.99
2023-04-18T02:11:04.766Z,88.13
2023-04-18T02:13:32.163Z,88.23
2023-04-18T02:15:58.551Z,88.15
2023-04-18T02:18:25.914Z,88.25
2023-04-18T02:20:52.217Z,88.28
2023-04-18T02:23:18.575Z,88.10
2023-04-18T02:25:45.099Z,88.08
2023-04-18T02:28:12.465Z,88.16
2023-04-18T02:30:38.723Z,88.21
2023-04-18T02:33:05.047Z,88.18
2023-04-18T02:35:31.430Z,88.09
2023-04-18T02:37:57.718Z,88.18
2023-04-18T02:40:24.844Z,88.23
2023-04-18T02:42:52.999Z,88.31
2023-04-18T02:45:19.341Z,88.36
2023-04-18T02:47:54.720Z,88.28
2023-04-18T02:50:23.846Z,88.26
2023-04-18T02:52:50.292Z,88.53
2023-04-18T02:55:17.070Z,88.65
2023-04-18T02:57:43.650Z,88.58
2023-04-18T03:00:40.835Z,88.44
2023-04-18T03:03:20.823Z,88.36
2023-04-18T03:05:57.133Z,88.39
2023-04-18T03:08:23.613Z,88.40
2023-04-18T03:10:49.933Z,88.60
2023-04-18T03:13:18.508Z,88.54
2023-04-18T03:15:45.824Z,88.48
2023-04-18T03:18:12.950Z,88.58
2023-04-18T03:20:40.291Z,88.83
2023-04-18T03:23:07.022Z,88.97
2023-04-18T03:25:35.082Z,89.14
2023-04-18T03:28:02.255Z,89.20
2023-04-18T03:30:28.821Z,89.26
2023-04-18T03:32:56.577Z,89.24
2023-04-18T03:35:23.507Z,89.23
2023-04-18T03:37:50.104Z,89.02
2023-04-18T03:40:28.128Z,88.85
2023-04-18T03:42:59.457Z,88.92
2023-04-18T03:45:26.237Z,88.90
2023-04-18T03:47:52.664Z,88.86
2023-04-18T03:50:19.861Z,88.71
2023-04-18T03:52:46.428Z,88.60
2023-04-18T03:55:14.629Z,88.44
2023-04-18T03:57:41.414Z,88.53
2023-04-18T04:00:11.440Z,88.48
2023-04-18T04:02:49.637Z,88.60
2023-04-18T04:05:19.141Z,88.66
2023-04-18T04:07:46.452Z,88.73
2023-04-18T04:10:12.748Z,88.82
2023-04-18T04:12:39.052Z,88.91
2023-04-18T04:15:06.465Z,88.74
2023-04-18T04:17:34.768Z,88.79
2023-04-18T04:20:01.719Z,88.98
2023-04-18T04:22:29.796Z,89.11
2023-04-18T04:24:57.036Z,89.22
2023-04-18T04:27:27.536Z,89.28
2023-04-18T04:29:55.701Z,89.03
2023-04-18T04:32:22.163Z,88.97
2023-04-18T04:34:48.783Z,89.05
2023-04-18T04:37:17.919Z,89.16
2023-04-18T04:39:55.903Z,89.15
2023-04-18T04:42:34.279Z,89.13
2023-04-18T04:45:09.100Z,88.99
2023-04-18T04:47:36.147Z,88.77
2023-04-18T04:50:03.654Z,88.89
2023-04-18T04:52:32.252Z,88.93
2023-04-18T04:54:58.842Z,89.02
2023-04-18T04:57:25.557Z,88.96
2023-04-18T04:59:52.281Z,88.84
2023-04-18T05:02:22.780Z,88.74
2023-04-18T05:04:49.249Z,88.64
2023-04-18T05:07:15.552Z,88.48
2023-04-18T05:09:41.777Z,88.46
2023-04-18T05:12:08.173Z,88.55
2023-04-18T05:14:34.829Z,88.61
2023-04-18T05:17:02.376Z,88.48
2023-04-18T05:19:28.900Z,88.44
2023-04-18T05:21:55.654Z,88.38
2023-04-18T05:24:21.991Z,88.36
2023-04-18T05:26:48.347Z,88.31
2023-04-18T05:29:14.636Z,88.25
2023-04-18T05:31:40.953Z,88.09
2023-04-18T05:34:07.303Z,87.89
2023-04-18T05:36:33.951Z,87.83
2023-04-18T05:39:00.343Z,87.79
2023-04-18T05:41:26.611Z,87.65
2023-04-18T05:44:04.314Z,87.55
2023-04-18T05:46:34.815Z,87.51
2023-04-18T05:49:01.921Z,87.42
2023-04-18T05:51:28.576Z,87.28
2023-04-18T05:53:55.025Z,87.18
2023-04-18T05:56:21.327Z,87.23
2023-04-18T05:58:48.348Z,87.23
2023-04-18T06:01:15.411Z,87.06
2023-04-18T06:03:41.920Z,86.97
2023-04-18T06:06:09.082Z,86.80
2023-04-18T06:08:35.503Z,86.75
2023-04-18T06:11:02.343Z,86.66
2023-04-18T06:13:29.030Z,86.46
2023-04-18T06:15:55.366Z,86.40
2023-04-18T06:18:21.913Z,86.29
2023-04-18T06:20:48.621Z,86.13
2023-04-18T06:23:14.999Z,85.96
2023-04-18T06:25:42.074Z,85.95
2023-04-18T06:28:08.509Z,85.81
2023-04-18T06:30:34.980Z,85.84
2023-04-18T06:33:01.337Z,85.67
2023-04-18T06:35:31.440Z,85.67
2023-04-18T06:37:57.740Z,85.34
2023-04-18T06:40:24.048Z,85.18
2023-04-18T06:42:50.869Z,84.97
2023-04-18T06:45:17.387Z,84.93
2023-04-18T06:47:43.977Z,84.98
2023-04-18T06:50:10.627Z,85.02
2023-04-18T06:52:39.899Z,84.68
2023-04-18T06:55:08.321Z,84.40
2023-04-18T06:57:35.109Z,84.15
2023-04-18T07:00:01.636Z,84.03
2023-04-18T07:02:27.944Z,83.96
2023-04-18T07:04:54.306Z,83.87
2023-04-18T07:07:20.685Z,83.83
2023-04-18T07:09:48.190Z,83.74
2023-04-18T07:12:15.428Z,83.30
2023-04-18T07:14:41.719Z,83.20
2023-04-18T07:17:08.288Z,83.37
2023-04-18T07:19:34.616Z,83.31
2023-04-18T07:22:00.851Z,83.21
2023-04-18T07:24:27.293Z,83.04
2023-04-18T07:26:55.157Z,82.82
2023-04-18T07:29:21.820Z,82.70
2023-04-18T07:31:48.613Z,82.60
2023-04-18T07:34:15.443Z,82.62
2023-04-18T07:36:42.047Z,82.60
2023-04-18T07:39:08.716Z,82.59
2023-04-18T07:41:35.017Z,82.37
2023-04-18T07:44:01.762Z,82.39
2023-04-18T07:46:28.391Z,82.18
2023-04-18T07:48:54.790Z,81.99
2023-04-18T07:51:24.770Z,81.77
2023-04-18T07:53:51.109Z,81.76
2023-04-18T07:56:18.193Z,81.38
2023-04-18T07:58:44.866Z,81.23
2023-04-18T08:01:13.359Z,81.22
2023-04-18T08:03:40.005Z,81.25
2023-04-18T08:06:06.653Z,81.24
2023-04-18T08:08:33.083Z,81.26
2023-04-18T08:10:59.353Z,81.16
2023-04-18T08:13:25.687Z,80.83
2023-04-18T08:15:51.953Z,80.78
2023-04-18T08:18:19.430Z,80.81
2023-04-18T08:20:46.094Z,80.94
2023-04-18T08:23:13.334Z,80.96
2023-04-18T08:25:40.177Z,80.91
2023-04-18T08:28:06.537Z,80.66
2023-04-18T08:30:33.240Z,80.70
2023-04-18T08:33:00.606Z,80.29
2023-04-18T08:35:27.496Z,80.29
2023-04-18T08:37:53.776Z,79.83
2023-04-18T08:40:20.682Z,79.84
2023-04-18T08:42:48.024Z,79.68
2023-04-18T08:45:17.212Z,79.78
2023-04-18T08:47:43.529Z,79.72
2023-04-18T08:50:10.774Z,79.46
2023-04-18T08:52:39.202Z,79.43
2023-04-18T08:55:06.544Z,79.32
2023-04-18T08:57:35.201Z,79.27
2023-04-18T09:00:04.856Z,79.14
2023-04-18T09:02:41.776Z,78.36
2023-04-18T09:05:11.733Z,78.35
2023-04-18T09:07:38.085Z,78.12
2023-04-18T09:10:04.921Z,77.23
2023-04-18T09:12:31.985Z,77.01
2023-04-18T09:15:15.606Z,77.15
2023-04-18T09:17:50.186Z,76.48
2023-04-18T09:20:41.607Z,75.67
2023-04-18T09:23:10.414Z,75.38
2023-04-18T09:25:45.142Z,75.21
2023-04-18T09:28:28.220Z,74.94
2023-04-18T09:31:16.793Z,74.56
2023-04-18T09:33:53.698Z,74.40
2023-04-18T09:36:21.901Z,74.00
2023-04-18T09:38:50.457Z,73.58
2023-04-18T09:41:18.493Z,73.29
2023-04-18T09:43:47.346Z,73.31
2023-04-18T09:46:16.716Z,72.22
2023-04-18T09:48:43.006Z,72.00
2023-04-18T09:51:12.635Z,71.83
2023-04-18T09:53:40.778Z,71.70
2023-04-18T09:56:13.907Z,71.25
2023-04-18T09:58:41.637Z,71.32
2023-04-18T10:01:08.271Z,71.28
2023-04-18T10:03:43.605Z,70.85
2023-04-18T10:06:11.189Z,70.66
2023-04-18T10:08:39.142Z,70.60
2023-04-18T10:11:05.545Z,70.22
2023-04-18T10:13:35.368Z,69.80
2023-04-18T10:16:02.287Z,68.94
2023-04-18T10:18:28.716Z,68.87
2023-04-18T10:21:02.785Z,68.66
2023-04-18T10:23:33.946Z,68.60
2023-04-18T10:26:04.133Z,67.23
2023-04-18T10:28:52.303Z,65.30
2023-04-18T10:31:20.714Z,64.75
2023-04-18T10:34:03.216Z,62.88
2023-04-18T10:36:31.761Z,62.54
2023-04-18T10:39:21.328Z,62.00
2023-04-18T10:41:50.715Z,61.82
2023-04-18T10:44:21.111Z,61.62
2023-04-18T10:46:47.864Z,61.70
2023-04-18T10:49:27.950Z,61.61
2023-04-18T10:51:57.945Z,61.39
2023-04-18T10:54:32.668Z,60.73
2023-04-18T10:57:03.957Z,60.31
2023-04-18T10:59:32.291Z,60.04
2023-04-18T11:02:22.484Z,59.20
2023-04-18T11:04:53.686Z,58.33
2023-04-18T11:07:44.332Z,57.21
2023-04-18T11:10:11.786Z,56.00
2023-04-18T11:12:40.355Z,55.27
2023-04-18T11:15:12.322Z,54.67
2023-04-18T11:17:43.593Z,55.03
2023-04-18T11:20:13.446Z,55.23
2023-04-18T11:22:43.481Z,54.67
2023-04-18T11:25:10.237Z,54.28
2023-04-18T11:27:37.091Z,52.87
2023-04-18T11:30:04.275Z,53.00
2023-04-18T11:32:33.486Z,53.31
2023-04-18T11:34:59.900Z,52.86
2023-04-18T11:37:26.349Z,51.72
2023-04-18T11:39:53.455Z,51.94
2023-04-18T11:42:20.508Z,51.48
2023-04-18T11:44:48.399Z,51.05
2023-04-18T11:47:33.243Z,50.59
2023-04-18T11:50:08.018Z,49.32
2023-04-18T11:52:36.063Z,48.71
2023-04-18T11:55:23.850Z,48.73
2023-04-18T11:57:55.405Z,48.85
2023-04-18T12:00:34.848Z,48.32
2023-04-18T12:03:07.280Z,48.57
2023-04-18T12:05:38.490Z,49.24
2023-04-18T12:08:11.075Z,49.38
2023-04-18T12:10:45.386Z,49.01
2023-04-18T12:13:11.769Z,49.37
2023-04-18T12:15:41.567Z,50.28
2023-04-18T12:18:07.883Z,51.15
2023-04-18T12:20:37.063Z,51.86
2023-04-18T12:23:03.518Z,52.49
2023-04-18T12:25:30.941Z,53.15
2023-04-18T12:27:59.797Z,53.87
2023-04-18T12:30:31.089Z,54.22
2023-04-18T12:33:00.620Z,54.43
2023-04-18T12:35:28.242Z,55.49
2023-04-18T12:37:56.407Z,55.99
2023-04-18T12:40:23.396Z,56.19
2023-04-18T12:42:51.044Z,56.96
2023-04-18T12:45:19.849Z,57.59
2023-04-18T12:47:47.779Z,57.40
2023-04-18T12:50:19.557Z,57.24
2023-04-18T12:52:46.188Z,57.12
2023-04-18T12:55:13.405Z,57.12
2023-04-18T12:57:41.649Z,57.14
2023-04-18T13:00:10.518Z,57.35
2023-04-18T13:02:38.319Z,57.97
2023-04-18T13:05:06.249Z,58.53
2023-04-18T13:07:33.015Z,58.55
2023-04-18T13:09:59.378Z,58.48
2023-04-18T13:12:25.949Z,58.65
2023-04-18T13:14:52.437Z,58.77
2023-04-18T13:17:18.699Z,59.09
2023-04-18T13:19:45.449Z,59.16
2023-04-18T13:22:11.711Z,59.11
2023-04-18T13:24:38.041Z,58.54
2023-04-18T13:27:09.680Z,58.16
2023-04-18T13:29:40.453Z,58.19
2023-04-18T13:32:07.652Z,58.29
2023-04-18T13:34:39.079Z,58.25
2023-04-18T13:37:05.752Z,58.29
2023-04-18T13:39:32.990Z,58.17
2023-04-18T13:41:59.321Z,58.35
2023-04-18T13:44:26.118Z,58.39
2023-04-18T13:46:53.899Z,58.48
2023-04-18T13:49:20.493Z,58.59
2023-04-18T13:51:46.891Z,58.39
2023-04-18T13:54:14.865Z,58.33
2023-04-18T13:56:42.053Z,58.36
2023-04-18T13:59:08.341Z,58.31
2023-04-18T14:01:34.798Z,58.27
2023-04-18T14:04:02.439Z,58.25
2023-04-18T14:06:28.964Z,58.32
2023-04-18T14:08:55.224Z,58.47
2023-04-18T14:11:22.427Z,58.42
2023-04-18T14:13:50.145Z,58.65
2023-04-18T14:16:18.272Z,58.81
2023-04-18T14:18:45.632Z,58.66
2023-04-18T14:21:12.472Z,58.54
2023-04-18T14:23:38.717Z,58.96
2023-04-18T14:26:04.958Z,59.13
2023-04-18T14:28:31.500Z,59.16
2023-04-18T14:31:01.263Z,59.18
2023-04-18T14:33:28.550Z,59.11
2023-04-18T14:35:55.239Z,59.24
2023-04-18T14:38:21.478Z,59.24
2023-04-18T14:40:47.824Z,59.21
2023-04-18T14:43:14.051Z,59.04
2023-04-18T14:45:41.410Z,58.56
2023-04-18T14:48:10.027Z,58.59
2023-04-18T14:50:37.854Z,58.57
2023-04-18T14:53:04.891Z,58.64
2023-04-18T14:55:32.688Z,58.71
2023-04-18T14:57:59.467Z,58.67
2023-04-18T15:00:26.267Z,58.92
2023-04-18T15:02:53.264Z,58.64
2023-04-18T15:05:22.958Z,58.98
2023-04-18T15:07:52.284Z,59.09
2023-04-18T15:10:21.612Z,58.98
2023-04-18T15:12:48.045Z,59.21
2023-04-18T15:15:14.516Z,59.14
2023-04-18T15:17:40.911Z,58.80
2023-04-18T15:20:07.769Z,58.80
2023-04-18T15:22:35.242Z,58.92
2023-04-18T15:25:03.611Z,58.85
2023-04-18T15:27:29.887Z,58.97
2023-04-18T15:29:58.184Z,58.91
2023-04-18T15:32:26.091Z,58.79
2023-04-18T15:34:52.556Z,58.57
2023-04-18T15:37:18.954Z,58.38
2023-04-18T15:39:45.345Z,58.31
2023-04-18T15:42:11.566Z,58.53
2023-04-18T15:44:37.898Z,58.33
2023-04-18T15:47:04.191Z,58.50
2023-04-18T15:49:30.545Z,58.30
2023-04-18T15:51:56.952Z,58.41
2023-04-18T15:54:23.285Z,58.46
2023-04-18T15:56:50.926Z,58.38
2023-04-18T15:59:17.295Z,58.29
2023-04-18T16:01:45.873Z,58.20
2023-04-18T16:04:12.835Z,58.05
2023-04-18T16:06:39.970Z,57.99
2023-04-18T16:09:06.247Z,57.96
2023-04-18T16:11:32.495Z,57.91
2023-04-18T16:13:58.746Z,58.09
2023-04-18T16:16:25.849Z,57.87
2023-04-18T16:18:52.132Z,57.35
2023-04-18T16:21:19.903Z,57.22
2023-04-18T16:23:47.983Z,57.30
2023-04-18T16:26:14.361Z,57.49
2023-04-18T16:28:41.344Z,57.10
2023-04-18T16:31:07.745Z,57.06
2023-04-18T16:33:35.202Z,56.76
2023-04-18T16:36:02.383Z,56.50
2023-04-18T16:38:28.734Z,56.85
2023-04-18T16:40:56.717Z,56.93
2023-04-18T16:43:30.208Z,57.02
2023-04-18T16:45:57.294Z,57.17
2023-04-18T16:48:23.911Z,57.27
2023-04-18T16:50:51.155Z,57.03
2023-04-18T16:53:17.573Z,57.25
2023-04-18T16:55:43.867Z,57.18
2023-04-18T16:58:10.453Z,57.40
2023-04-18T17:00:38.359Z,57.52
2023-04-18T17:03:09.354Z,57.39
2023-04-18T17:05:38.609Z,57.94
2023-04-18T17:08:06.076Z,58.07
2023-04-18T17:10:33.161Z,58.22
2023-04-18T17:13:01.448Z,58.19
2023-04-18T17:15:27.846Z,58.16
2023-04-18T17:17:55.875Z,58.24
2023-04-18T17:20:22.945Z,58.12
2023-04-18T17:22:49.246Z,58.25
2023-04-18T17:25:15.964Z,58.31
2023-04-18T17:27:42.616Z,58.58
2023-04-18T17:30:09.509Z,58.88
2023-04-18T17:32:36.280Z,58.61
2023-04-18T17:35:05.553Z,58.88
2023-04-18T17:37:31.860Z,58.90
2023-04-18T17:39:59.727Z,58.85
2023-04-18T17:42:26.259Z,59.07
2023-04-18T17:44:52.607Z,59.50
2023-04-18T17:47:18.839Z,60.15
2023-04-18T17:49:45.653Z,60.51
2023-04-18T17:52:11.977Z,60.90
2023-04-18T17:54:38.219Z,61.19
2023-04-18T17:57:04.784Z,61.50
2023-04-18T17:59:36.749Z,61.73
2023-04-18T18:02:04.196Z,61.99
2023-04-18T18:04:31.134Z,62.29
2023-04-18T18:06:58.308Z,62.62
2023-04-18T18:09:24.769Z,62.95
2023-04-18T18:11:52.451Z,63.31
2023-04-18T18:14:20.631Z,63.85
2023-04-18T18:16:46.994Z,64.21
2023-04-18T18:19:14.696Z,64.33
2023-04-18T18:21:41.547Z,64.60
2023-04-18T18:24:08.475Z,64.83
2023-04-18T18:26:35.520Z,65.06
2023-04-18T18:29:08.470Z,65.16
2023-04-18T18:31:35.720Z,65.53
2023-04-18T18:34:02.759Z,65.25
2023-04-18T18:36:29.267Z,65.49
2023-04-18T18:38:57.421Z,65.15
2023-04-18T18:41:24.237Z,65.00
2023-04-18T18:43:51.073Z,64.86
2023-04-18T18:46:18.197Z,64.79
2023-04-18T18:48:44.642Z,64.69
2023-04-18T18:51:11.329Z,64.55
2023-04-18T18:53:40.218Z,64.63
2023-04-18T18:56:08.083Z,64.54
2023-04-18T18:58:35.261Z,64.35
2023-04-18T19:01:02.609Z,64.37
2023-04-18T19:03:29.803Z,64.51
2023-04-18T19:05:56.472Z,64.51
2023-04-18T19:08:22.766Z,64.36
2023-04-18T19:10:49.871Z,64.33
2023-04-18T19:13:16.271Z,64.33
2023-04-18T19:15:42.675Z,64.01
2023-04-18T19:18:09.158Z,63.93
2023-04-18T19:20:38.032Z,63.95
2023-04-18T19:23:04.299Z,63.91
2023-04-18T19:25:30.713Z,63.92
2023-04-18T19:27:57.050Z,63.82
2023-04-18T19:30:24.384Z,63.64
2023-04-18T19:32:51.158Z,63.56
2023-04-18T19:35:20.188Z,63.50
2023-04-18T19:37:47.313Z,63.47
2023-04-18T19:40:18.455Z,63.56
2023-04-18T19:42:45.439Z,63.46
2023-04-18T19:45:12.949Z,63.50
2023-04-18T19:47:39.362Z,63.40
2023-04-18T19:50:06.852Z,63.47
2023-04-18T19:52:33.243Z,63.44
2023-04-18T19:55:01.875Z,63.47
2023-04-18T19:57:29.066Z,63.48
2023-04-18T19:59:55.868Z,63.50
2023-04-18T20:02:22.195Z,63.48
2023-04-18T20:04:48.821Z,63.52
2023-04-18T20:07:15.797Z,63.53
2023-04-18T20:09:42.110Z,63.51
2023-04-18T20:12:08.480Z,63.44
2023-04-18T20:14:34.958Z,63.38
2023-04-18T20:17:01.505Z,63.36
2023-04-18T20:19:28.907Z,63.42
2023-04-18T20:21:55.395Z,63.49
2023-04-18T20:24:23.036Z,63.52
2023-04-18T20:26:50.671Z,63.49
2023-04-18T20:29:17.053Z,63.44
2023-04-18T20:44:48.544Z,63.90
2023-04-18T20:47:15.936Z,63.84
2023-04-18T20:49:42.363Z,63.83
2023-04-18T20:52:13.722Z,63.77
2023-04-18T20:54:41.007Z,63.72
2023-04-18T20:57:07.555Z,63.68
2023-04-18T20:59:34.120Z,63.73
2023-04-18T21:02:01.050Z,64.02
2023-04-18T21:04:28.740Z,64.07
2023-04-18T21:06:55.542Z,64.28
2023-04-18T21:09:22.467Z,64.57
2023-04-18T21:11:49.158Z,64.64
2023-04-18T21:14:16.559Z,64.75
2023-04-18T21:16:43.221Z,64.77
2023-04-18T21:19:10.904Z,65.12
2023-04-18T21:21:37.163Z,65.40
2023-04-18T21:24:05.049Z,65.48
2023-04-18T21:26:31.285Z,65.70
2023-04-18T21:29:03.923Z,65.80
2023-04-18T21:31:32.575Z,66.04
2023-04-18T21:34:00.934Z,66.21
2023-04-18T21:36:28.303Z,66.30
2023-04-18T21:38:57.626Z,66.45
2023-04-18T21:41:24.552Z,66.50
2023-04-18T21:43:51.236Z,66.80
2023-04-18T21:46:18.429Z,66.93
2023-04-18T21:48:46.926Z,66.97
2023-04-18T21:51:15.506Z,67.17
2023-04-18T21:53:42.344Z,67.51
2023-04-18T21:56:09.159Z,67.36
2023-04-18T21:58:35.498Z,67.59
2023-04-18T22:01:02.432Z,68.07
2023-04-18T22:03:29.354Z,68.28
2023-04-18T22:05:56.036Z,68.65
2023-04-18T22:08:24.996Z,68.90
2023-04-18T22:10:54.359Z,69.14
2023-04-18T22:13:21.545Z,69.41
2023-04-18T22:15:49.247Z,69.31
2023-04-18T22:18:15.573Z,69.40
2023-04-18T22:20:42.488Z,69.80
2023-04-18T22:23:08.989Z,69.74
2023-04-18T22:25:35.642Z,69.85
2023-04-18T22:28:03.017Z,70.06
2023-04-18T22:30:30.362Z,69.88
2023-04-18T22:32:58.359Z,69.92
2023-04-18T22:35:26.149Z,69.88
2023-04-18T22:37:52.391Z,69.92
2023-04-18T22:40:18.841Z,69.86
2023-04-18T22:42:45.202Z,69.84
2023-04-18T22:45:12.737Z,69.95
2023-04-18T22:47:39.116Z,69.73
2023-04-18T22:50:06.382Z,69.83
2023-04-18T22:52:33.361Z,69.75
2023-04-18T22:55:01.564Z,69.76
2023-04-18T22:57:28.014Z,69.67
2023-04-18T22:59:54.351Z,69.74
2023-04-18T23:02:20.737Z,70.21
2023-04-18T23:04:47.342Z,70.09
2023-04-18T23:07:13.727Z,70.16
2023-04-18T23:09:40.272Z,70.45
2023-04-18T23:12:06.632Z,70.72
2023-04-18T23:14:34.148Z,70.97
2023-04-18T23:17:00.669Z,71.01
2023-04-18T23:19:26.922Z,71.13
2023-04-18T23:21:53.519Z,71.45
2023-04-18T23:24:19.735Z,71.57
2023-04-18T23:26:45.963Z,71.70
2023-04-18T23:29:12.218Z,71.75
2023-04-18T23:31:38.490Z,71.82
2023-04-18T23:34:04.769Z,72.07
2023-04-18T23:36:31.614Z,72.29
2023-04-18T23:38:58.258Z,72.33
2023-04-18T23:41:24.754Z,72.64
2023-04-18T23:43:51.100Z,73.01
2023-04-18T23:46:17.488Z,73.35
2023-04-18T23:48:43.871Z,73.24
2023-04-18T23:51:10.475Z,73.90
2023-04-18T23:53:36.710Z,74.40
2023-04-18T23:56:03.091Z,74.70
2023-04-18T23:58:30.968Z,75.15
